sensor_id;sensor_type;location;lat;lon;timestamp;temperature;humidity
13346;DHT22;6742;48.036;15.780;2023-12-20T00:01:01;0.20;99.90
13346;DHT22;6742;48.036;15.780;2023-12-20T00:03:28;0.20;99.90
13346;DHT22;6742;48.036;15.780;2023-12-20T00:05:55;0.20;99.90
13346;DHT22;6742;48.036;15.780;2023-12-20T00:08:22;0.20;99.90
13346;DHT22;6742;48.036;15.780;2023-12-20T00:10:50;0.20;99.90
13346;DHT22;6742;48.036;15.780;2023-12-20T00:13:17;0.30;99.90
13346;DHT22;6742;48.036;15.780;2023-12-20T00:15:44;0.30;99.90
13346;DHT22;6742;48.036;15.780;2023-12-20T00:18:11;0.20;99.90
13346;DHT22;6742;48.036;15.780;2023-12-20T00:20:36;0.10;99.90
13346;DHT22;6742;48.036;15.780;2023-12-20T00:23:03;0.10;99.90
13346;DHT22;6742;48.036;15.780;2023-12-20T00:25:30;0.10;99.90
13346;DHT22;6742;48.036;15.780;2023-12-20T00:27:59;0.10;99.90
13346;DHT22;6742;48.036;15.780;2023-12-20T00:30:26;0.10;99.90
13346;DHT22;6742;48.036;15.780;2023-12-20T00:32:53;0.10;99.90
13346;DHT22;6742;48.036;15.780;2023-12-20T00:35:19;0.10;99.90
13346;DHT22;6742;48.036;15.780;2023-12-20T00:37:46;0.20;99.90
13346;DHT22;6742;48.036;15.780;2023-12-20T00:40:13;0.20;99.90
13346;DHT22;6742;48.036;15.780;2023-12-20T00:42:40;0.20;99.90
13346;DHT22;6742;48.036;15.780;2023-12-20T00:45:09;0.20;99.90
13346;DHT22;6742;48.036;15.780;2023-12-20T00:47:36;0.20;99.90
13346;DHT22;6742;48.036;15.780;2023-12-20T00:50:03;0.20;99.90
13346;DHT22;6742;48.036;15.780;2023-12-20T00:52:30;0.20;99.90
13346;DHT22;6742;48.036;15.780;2023-12-20T00:54:57;0.20;99.90
13346;DHT22;6742;48.036;15.780;2023-12-20T00:57:24;0.30;99.90
13346;DHT22;6742;48.036;15.780;2023-12-20T00:59:51;0.30;99.90
13346;DHT22;6742;48.036;15.780;2023-12-20T01:02:19;0.30;99.90
13346;DHT22;6742;48.036;15.780;2023-12-20T01:04:46;0.30;99.90
13346;DHT22;6742;48.036;15.780;2023-12-20T01:07:13;0.30;99.90
13346;DHT22;6742;48.036;15.780;2023-12-20T01:09:40;0.30;99.90
13346;DHT22;6742;48.036;15.780;2023-12-20T01:12:07;0.30;99.90
13346;DHT22;6742;48.036;15.780;2023-12-20T01:14:33;0.20;99.90
13346;DHT22;6742;48.036;15.780;2023-12-20T01:17:00;0.20;99.90
13346;DHT22;6742;48.036;15.780;2023-12-20T01:19:28;0.20;99.90
13346;DHT22;6742;48.036;15.780;2023-12-20T01:21:55;0.20;99.90
13346;DHT22;6742;48.036;15.780;2023-12-20T01:24:22;0.30;99.90
13346;DHT22;6742;48.036;15.780;2023-12-20T01:26:49;0.30;99.90
13346;DHT22;6742;48.036;15.780;2023-12-20T01:29:18;0.30;99.90
13346;DHT22;6742;48.036;15.780;2023-12-20T01:31:45;0.30;99.90
13346;DHT22;6742;48.036;15.780;2023-12-20T01:34:12;0.30;99.90
13346;DHT22;6742;48.036;15.780;2023-12-20T01:36:40;0.30;99.90
13346;DHT22;6742;48.036;15.780;2023-12-20T01:39:07;0.30;99.90
13346;DHT22;6742;48.036;15.780;2023-12-20T01:41:34;0.30;99.90
13346;DHT22;6742;48.036;15.780;2023-12-20T01:44:01;0.30;99.90
13346;DHT22;6742;48.036;15.780;2023-12-20T01:46:28;0.30;99.90
13346;DHT22;6742;48.036;15.780;2023-12-20T01:48:55;0.40;99.90
13346;DHT22;6742;48.036;15.780;2023-12-20T01:51:22;0.40;99.90
13346;DHT22;6742;48.036;15.780;2023-12-20T01:53:50;0.40;99.90
13346;DHT22;6742;48.036;15.780;2023-12-20T01:56:17;0.30;99.90
13346;DHT22;6742;48.036;15.780;2023-12-20T01:58:46;0.30;99.90
13346;DHT22;6742;48.036;15.780;2023-12-20T02:01:14;0.30;99.90
13346;DHT22;6742;48.036;15.780;2023-12-20T02:03:41;0.30;99.90
13346;DHT22;6742;48.036;15.780;2023-12-20T02:06:09;0.30;99.90
13346;DHT22;6742;48.036;15.780;2023-12-20T02:08:36;0.40;99.90
13346;DHT22;6742;48.036;15.780;2023-12-20T02:11:04;0.50;99.90
13346;DHT22;6742;48.036;15.780;2023-12-20T02:13:31;0.70;99.90
13346;DHT22;6742;48.036;15.780;2023-12-20T02:15:58;0.80;99.90
13346;DHT22;6742;48.036;15.780;2023-12-20T02:18:26;1.00;99.90
13346;DHT22;6742;48.036;15.780;2023-12-20T02:20:53;1.20;99.90
13346;DHT22;6742;48.036;15.780;2023-12-20T02:23:22;1.40;99.90
13346;DHT22;6742;48.036;15.780;2023-12-20T02:25:48;1.80;99.90
13346;DHT22;6742;48.036;15.780;2023-12-20T02:28:16;2.00;99.90
13346;DHT22;6742;48.036;15.780;2023-12-20T02:30:43;2.10;99.90
13346;DHT22;6742;48.036;15.780;2023-12-20T02:33:12;2.20;99.90
13346;DHT22;6742;48.036;15.780;2023-12-20T02:35:40;2.20;99.90
13346;DHT22;6742;48.036;15.780;2023-12-20T02:38:07;2.40;99.90
13346;DHT22;6742;48.036;15.780;2023-12-20T02:40:36;2.60;99.90
13346;DHT22;6742;48.036;15.780;2023-12-20T02:43:03;2.70;99.90
13346;DHT22;6742;48.036;15.780;2023-12-20T02:45:30;2.80;99.90
13346;DHT22;6742;48.036;15.780;2023-12-20T02:47:57;2.80;99.90
13346;DHT22;6742;48.036;15.780;2023-12-20T02:50:24;3.00;99.90
13346;DHT22;6742;48.036;15.780;2023-12-20T02:52:51;3.00;99.90
13346;DHT22;6742;48.036;15.780;2023-12-20T02:55:17;3.20;99.90
13346;DHT22;6742;48.036;15.780;2023-12-20T02:57:46;3.40;99.90
13346;DHT22;6742;48.036;15.780;2023-12-20T03:00:13;3.40;99.90
13346;DHT22;6742;48.036;15.780;2023-12-20T03:02:40;3.50;99.90
13346;DHT22;6742;48.036;15.780;2023-12-20T03:05:08;3.40;99.90
13346;DHT22;6742;48.036;15.780;2023-12-20T03:07:36;3.50;99.90
13346;DHT22;6742;48.036;15.780;2023-12-20T03:10:04;3.40;99.90
13346;DHT22;6742;48.036;15.780;2023-12-20T03:12:31;3.30;99.90
13346;DHT22;6742;48.036;15.780;2023-12-20T03:15:00;3.30;99.90
13346;DHT22;6742;48.036;15.780;2023-12-20T03:17:26;3.20;99.90
13346;DHT22;6742;48.036;15.780;2023-12-20T03:19:53;3.10;99.90
13346;DHT22;6742;48.036;15.780;2023-12-20T03:22:20;3.00;99.90
13346;DHT22;6742;48.036;15.780;2023-12-20T03:24:47;2.80;99.90
13346;DHT22;6742;48.036;15.780;2023-12-20T03:27:14;2.80;99.90
13346;DHT22;6742;48.036;15.780;2023-12-20T03:29:41;2.60;99.90
13346;DHT22;6742;48.036;15.780;2023-12-20T03:32:09;2.50;99.90
13346;DHT22;6742;48.036;15.780;2023-12-20T03:34:36;2.40;99.90
13346;DHT22;6742;48.036;15.780;2023-12-20T03:37:03;2.30;99.90
13346;DHT22;6742;48.036;15.780;2023-12-20T03:39:30;2.30;99.90
13346;DHT22;6742;48.036;15.780;2023-12-20T03:41:57;2.20;99.90
13346;DHT22;6742;48.036;15.780;2023-12-20T03:44:24;2.20;99.90
13346;DHT22;6742;48.036;15.780;2023-12-20T03:46:51;2.10;99.90
13346;DHT22;6742;48.036;15.780;2023-12-20T03:49:19;2.10;99.90
13346;DHT22;6742;48.036;15.780;2023-12-20T03:51:46;2.10;99.90
13346;DHT22;6742;48.036;15.780;2023-12-20T03:54:13;2.10;99.90
13346;DHT22;6742;48.036;15.780;2023-12-20T03:56:40;2.10;99.90
13346;DHT22;6742;48.036;15.780;2023-12-20T03:59:06;2.10;99.90
13346;DHT22;6742;48.036;15.780;2023-12-20T04:01:34;2.00;99.90
13346;DHT22;6742;48.036;15.780;2023-12-20T04:04:01;2.00;99.90
13346;DHT22;6742;48.036;15.780;2023-12-20T04:06:29;2.00;99.90
13346;DHT22;6742;48.036;15.780;2023-12-20T04:08:56;2.00;99.90
13346;DHT22;6742;48.036;15.780;2023-12-20T04:11:23;2.00;99.90
13346;DHT22;6742;48.036;15.780;2023-12-20T04:13:50;2.10;99.90
13346;DHT22;6742;48.036;15.780;2023-12-20T04:16:17;2.20;99.90
13346;DHT22;6742;48.036;15.780;2023-12-20T04:18:44;2.20;99.90
13346;DHT22;6742;48.036;15.780;2023-12-20T04:21:11;2.30;99.90
13346;DHT22;6742;48.036;15.780;2023-12-20T04:23:39;2.30;99.90
13346;DHT22;6742;48.036;15.780;2023-12-20T04:26:06;2.30;99.90
13346;DHT22;6742;48.036;15.780;2023-12-20T04:28:33;2.30;99.90
13346;DHT22;6742;48.036;15.780;2023-12-20T04:31:00;2.30;99.90
13346;DHT22;6742;48.036;15.780;2023-12-20T04:33:27;2.30;99.90
13346;DHT22;6742;48.036;15.780;2023-12-20T04:35:54;2.30;99.90
13346;DHT22;6742;48.036;15.780;2023-12-20T04:38:20;2.20;99.90
13346;DHT22;6742;48.036;15.780;2023-12-20T04:40:49;2.20;99.90
13346;DHT22;6742;48.036;15.780;2023-12-20T04:43:16;2.20;99.90
13346;DHT22;6742;48.036;15.780;2023-12-20T04:45:42;2.30;99.90
13346;DHT22;6742;48.036;15.780;2023-12-20T04:48:09;2.30;99.90
13346;DHT22;6742;48.036;15.780;2023-12-20T04:50:36;2.30;99.90
13346;DHT22;6742;48.036;15.780;2023-12-20T04:53:03;2.30;99.90
13346;DHT22;6742;48.036;15.780;2023-12-20T04:55:30;2.30;99.90
13346;DHT22;6742;48.036;15.780;2023-12-20T04:57:59;2.30;99.90
13346;DHT22;6742;48.036;15.780;2023-12-20T05:00:26;2.30;99.90
13346;DHT22;6742;48.036;15.780;2023-12-20T05:02:53;2.20;99.90
13346;DHT22;6742;48.036;15.780;2023-12-20T05:05:20;2.20;99.90
13346;DHT22;6742;48.036;15.780;2023-12-20T05:07:47;2.20;99.90
13346;DHT22;6742;48.036;15.780;2023-12-20T05:10:14;2.20;99.90
13346;DHT22;6742;48.036;15.780;2023-12-20T05:12:41;2.20;99.90
13346;DHT22;6742;48.036;15.780;2023-12-20T05:15:10;2.20;99.90
13346;DHT22;6742;48.036;15.780;2023-12-20T05:17:36;2.30;99.90
13346;DHT22;6742;48.036;15.780;2023-12-20T05:20:04;2.30;99.90
13346;DHT22;6742;48.036;15.780;2023-12-20T05:22:31;2.30;99.90
13346;DHT22;6742;48.036;15.780;2023-12-20T05:24:58;2.30;99.90
13346;DHT22;6742;48.036;15.780;2023-12-20T05:27:25;2.30;99.90
13346;DHT22;6742;48.036;15.780;2023-12-20T05:29:52;2.30;99.90
13346;DHT22;6742;48.036;15.780;2023-12-20T05:32:24;2.30;99.90
13346;DHT22;6742;48.036;15.780;2023-12-20T05:34:51;2.30;99.90
13346;DHT22;6742;48.036;15.780;2023-12-20T05:37:18;2.30;99.90
13346;DHT22;6742;48.036;15.780;2023-12-20T05:39:45;2.30;99.90
13346;DHT22;6742;48.036;15.780;2023-12-20T05:42:12;2.30;99.90
13346;DHT22;6742;48.036;15.780;2023-12-20T05:44:38;2.30;99.90
13346;DHT22;6742;48.036;15.780;2023-12-20T05:47:06;2.40;99.90
13346;DHT22;6742;48.036;15.780;2023-12-20T05:49:34;2.30;99.90
13346;DHT22;6742;48.036;15.780;2023-12-20T05:52:01;2.40;99.90
13346;DHT22;6742;48.036;15.780;2023-12-20T05:54:28;2.50;99.90
13346;DHT22;6742;48.036;15.780;2023-12-20T05:56:55;2.50;99.90
13346;DHT22;6742;48.036;15.780;2023-12-20T05:59:21;2.50;99.90
13346;DHT22;6742;48.036;15.780;2023-12-20T06:01:49;2.50;99.90
13346;DHT22;6742;48.036;15.780;2023-12-20T06:04:16;2.50;99.90
13346;DHT22;6742;48.036;15.780;2023-12-20T06:06:44;2.40;99.90
13346;DHT22;6742;48.036;15.780;2023-12-20T06:09:11;2.40;99.90
13346;DHT22;6742;48.036;15.780;2023-12-20T06:11:38;2.40;99.90
13346;DHT22;6742;48.036;15.780;2023-12-20T06:14:05;2.40;99.90
13346;DHT22;6742;48.036;15.780;2023-12-20T06:16:32;2.50;99.90
13346;DHT22;6742;48.036;15.780;2023-12-20T06:18:59;2.50;99.90
13346;DHT22;6742;48.036;15.780;2023-12-20T06:21:26;2.50;99.90
13346;DHT22;6742;48.036;15.780;2023-12-20T06:23:55;2.50;99.90
13346;DHT22;6742;48.036;15.780;2023-12-20T06:26:22;2.60;99.90
13346;DHT22;6742;48.036;15.780;2023-12-20T06:28:48;2.60;99.90
13346;DHT22;6742;48.036;15.780;2023-12-20T06:31:15;2.60;99.90
13346;DHT22;6742;48.036;15.780;2023-12-20T06:33:43;2.70;99.90
13346;DHT22;6742;48.036;15.780;2023-12-20T06:36:11;2.80;99.90
13346;DHT22;6742;48.036;15.780;2023-12-20T06:38:38;2.80;99.90
13346;DHT22;6742;48.036;15.780;2023-12-20T06:41:07;2.90;99.90
13346;DHT22;6742;48.036;15.780;2023-12-20T06:43:33;3.00;99.90
13346;DHT22;6742;48.036;15.780;2023-12-20T06:46:01;3.10;99.90
13346;DHT22;6742;48.036;15.780;2023-12-20T06:48:27;3.20;99.90
13346;DHT22;6742;48.036;15.780;2023-12-20T06:50:54;3.30;99.90
13346;DHT22;6742;48.036;15.780;2023-12-20T06:53:21;3.40;99.90
13346;DHT22;6742;48.036;15.780;2023-12-20T06:55:48;3.60;99.90
13346;DHT22;6742;48.036;15.780;2023-12-20T06:58:17;3.80;99.90
13346;DHT22;6742;48.036;15.780;2023-12-20T07:00:44;3.90;99.90
13346;DHT22;6742;48.036;15.780;2023-12-20T07:03:10;4.00;99.90
13346;DHT22;6742;48.036;15.780;2023-12-20T07:05:37;4.10;99.90
13346;DHT22;6742;48.036;15.780;2023-12-20T07:08:05;4.30;99.90
13346;DHT22;6742;48.036;15.780;2023-12-20T07:10:32;4.30;99.90
13346;DHT22;6742;48.036;15.780;2023-12-20T07:12:59;4.40;99.90
13346;DHT22;6742;48.036;15.780;2023-12-20T07:15:27;4.50;99.90
13346;DHT22;6742;48.036;15.780;2023-12-20T07:17:55;4.70;99.90
13346;DHT22;6742;48.036;15.780;2023-12-20T07:20:22;4.80;99.90
13346;DHT22;6742;48.036;15.780;2023-12-20T07:22:49;4.80;99.90
13346;DHT22;6742;48.036;15.780;2023-12-20T07:25:16;4.80;99.90
13346;DHT22;6742;48.036;15.780;2023-12-20T07:27:43;4.90;99.90
13346;DHT22;6742;48.036;15.780;2023-12-20T07:30:11;4.90;99.90
13346;DHT22;6742;48.036;15.780;2023-12-20T07:32:39;5.00;99.90
13346;DHT22;6742;48.036;15.780;2023-12-20T07:35:07;5.10;99.90
13346;DHT22;6742;48.036;15.780;2023-12-20T07:37:34;5.10;99.90
13346;DHT22;6742;48.036;15.780;2023-12-20T07:40:01;5.20;99.90
13346;DHT22;6742;48.036;15.780;2023-12-20T07:42:29;5.20;99.90
13346;DHT22;6742;48.036;15.780;2023-12-20T07:44:56;5.30;99.90
13346;DHT22;6742;48.036;15.780;2023-12-20T07:47:22;5.40;99.90
13346;DHT22;6742;48.036;15.780;2023-12-20T07:49:52;5.50;99.90
13346;DHT22;6742;48.036;15.780;2023-12-20T07:52:19;5.50;99.90
13346;DHT22;6742;48.036;15.780;2023-12-20T07:54:47;5.60;99.90
13346;DHT22;6742;48.036;15.780;2023-12-20T07:57:14;5.60;99.90
13346;DHT22;6742;48.036;15.780;2023-12-20T07:59:41;5.70;99.90
13346;DHT22;6742;48.036;15.780;2023-12-20T08:02:09;5.80;99.90
13346;DHT22;6742;48.036;15.780;2023-12-20T08:04:37;5.80;99.90
13346;DHT22;6742;48.036;15.780;2023-12-20T08:07:05;5.80;99.90
13346;DHT22;6742;48.036;15.780;2023-12-20T08:09:32;5.80;99.90
13346;DHT22;6742;48.036;15.780;2023-12-20T08:11:59;5.80;99.90
13346;DHT22;6742;48.036;15.780;2023-12-20T08:14:26;5.90;99.90
13346;DHT22;6742;48.036;15.780;2023-12-20T08:16:53;5.90;99.90
13346;DHT22;6742;48.036;15.780;2023-12-20T08:19:20;6.00;99.90
13346;DHT22;6742;48.036;15.780;2023-12-20T08:21:47;6.00;99.90
13346;DHT22;6742;48.036;15.780;2023-12-20T08:24:15;6.00;99.90
13346;DHT22;6742;48.036;15.780;2023-12-20T08:26:42;5.90;99.90
13346;DHT22;6742;48.036;15.780;2023-12-20T08:29:09;5.80;99.90
13346;DHT22;6742;48.036;15.780;2023-12-20T08:31:35;5.80;99.90
13346;DHT22;6742;48.036;15.780;2023-12-20T08:34:02;5.80;99.90
13346;DHT22;6742;48.036;15.780;2023-12-20T08:36:29;5.70;99.90
13346;DHT22;6742;48.036;15.780;2023-12-20T08:38:56;5.70;99.90
13346;DHT22;6742;48.036;15.780;2023-12-20T08:41:24;5.70;99.90
13346;DHT22;6742;48.036;15.780;2023-12-20T08:43:51;5.60;99.90
13346;DHT22;6742;48.036;15.780;2023-12-20T08:46:18;5.60;99.90
13346;DHT22;6742;48.036;15.780;2023-12-20T08:48:45;5.60;99.90
13346;DHT22;6742;48.036;15.780;2023-12-20T08:51:13;5.60;99.90
13346;DHT22;6742;48.036;15.780;2023-12-20T08:53:40;5.60;99.90
13346;DHT22;6742;48.036;15.780;2023-12-20T08:56:07;5.60;99.90
13346;DHT22;6742;48.036;15.780;2023-12-20T08:58:35;5.50;99.90
13346;DHT22;6742;48.036;15.780;2023-12-20T09:01:02;5.50;99.90
13346;DHT22;6742;48.036;15.780;2023-12-20T09:03:29;5.40;99.90
13346;DHT22;6742;48.036;15.780;2023-12-20T09:05:56;5.30;99.90
13346;DHT22;6742;48.036;15.780;2023-12-20T09:08:23;5.20;99.90
13346;DHT22;6742;48.036;15.780;2023-12-20T09:10:50;5.10;99.90
13346;DHT22;6742;48.036;15.780;2023-12-20T09:13:17;5.00;99.90
13346;DHT22;6742;48.036;15.780;2023-12-20T09:15:45;5.00;99.90
13346;DHT22;6742;48.036;15.780;2023-12-20T09:18:12;5.00;99.90
13346;DHT22;6742;48.036;15.780;2023-12-20T09:20:42;4.90;99.90
13346;DHT22;6742;48.036;15.780;2023-12-20T09:23:08;4.90;99.90
13346;DHT22;6742;48.036;15.780;2023-12-20T09:25:35;4.80;99.90
13346;DHT22;6742;48.036;15.780;2023-12-20T09:28:02;4.80;99.90
13346;DHT22;6742;48.036;15.780;2023-12-20T09:30:29;4.80;99.90
13346;DHT22;6742;48.036;15.780;2023-12-20T09:32:58;4.80;99.90
13346;DHT22;6742;48.036;15.780;2023-12-20T09:35:25;4.70;99.90
13346;DHT22;6742;48.036;15.780;2023-12-20T09:37:52;4.70;99.90
13346;DHT22;6742;48.036;15.780;2023-12-20T09:40:19;4.70;99.90
13346;DHT22;6742;48.036;15.780;2023-12-20T09:42:50;4.70;99.90
13346;DHT22;6742;48.036;15.780;2023-12-20T09:45:20;4.60;99.90
13346;DHT22;6742;48.036;15.780;2023-12-20T09:47:49;4.60;99.90
13346;DHT22;6742;48.036;15.780;2023-12-20T09:50:18;4.60;99.90
13346;DHT22;6742;48.036;15.780;2023-12-20T09:52:46;4.70;99.90
13346;DHT22;6742;48.036;15.780;2023-12-20T09:55:17;4.70;99.90
13346;DHT22;6742;48.036;15.780;2023-12-20T09:57:44;4.60;99.90
13346;DHT22;6742;48.036;15.780;2023-12-20T10:00:12;4.60;99.90
13346;DHT22;6742;48.036;15.780;2023-12-20T10:02:45;4.60;99.90
13346;DHT22;6742;48.036;15.780;2023-12-20T10:05:16;4.60;99.90
13346;DHT22;6742;48.036;15.780;2023-12-20T10:07:46;4.60;99.90
13346;DHT22;6742;48.036;15.780;2023-12-20T10:10:13;4.60;99.90
13346;DHT22;6742;48.036;15.780;2023-12-20T10:12:40;4.70;99.90
13346;DHT22;6742;48.036;15.780;2023-12-20T10:15:08;4.70;99.90
13346;DHT22;6742;48.036;15.780;2023-12-20T10:17:36;4.70;99.90
13346;DHT22;6742;48.036;15.780;2023-12-20T10:20:04;4.70;99.90
13346;DHT22;6742;48.036;15.780;2023-12-20T10:22:36;4.70;99.90
13346;DHT22;6742;48.036;15.780;2023-12-20T10:25:06;4.80;99.90
13346;DHT22;6742;48.036;15.780;2023-12-20T10:27:34;4.80;99.90
13346;DHT22;6742;48.036;15.780;2023-12-20T10:30:01;4.80;99.90
13346;DHT22;6742;48.036;15.780;2023-12-20T10:32:28;4.80;99.90
13346;DHT22;6742;48.036;15.780;2023-12-20T10:34:55;4.80;99.90
13346;DHT22;6742;48.036;15.780;2023-12-20T10:37:22;4.80;99.90
13346;DHT22;6742;48.036;15.780;2023-12-20T10:39:50;4.80;99.90
13346;DHT22;6742;48.036;15.780;2023-12-20T10:42:20;4.90;99.90
13346;DHT22;6742;48.036;15.780;2023-12-20T10:44:49;4.90;99.90
13346;DHT22;6742;48.036;15.780;2023-12-20T10:47:17;4.90;99.90
13346;DHT22;6742;48.036;15.780;2023-12-20T10:49:45;4.90;99.90
13346;DHT22;6742;48.036;15.780;2023-12-20T10:52:12;5.00;99.90
13346;DHT22;6742;48.036;15.780;2023-12-20T10:54:40;5.00;99.90
13346;DHT22;6742;48.036;15.780;2023-12-20T10:57:07;5.00;99.90
13346;DHT22;6742;48.036;15.780;2023-12-20T10:59:37;5.10;99.90
13346;DHT22;6742;48.036;15.780;2023-12-20T11:02:05;5.10;99.90
13346;DHT22;6742;48.036;15.780;2023-12-20T11:04:39;5.20;99.90
13346;DHT22;6742;48.036;15.780;2023-12-20T11:07:17;5.20;99.90
13346;DHT22;6742;48.036;15.780;2023-12-20T11:09:54;5.20;99.90
13346;DHT22;6742;48.036;15.780;2023-12-20T11:12:32;5.20;99.90
13346;DHT22;6742;48.036;15.780;2023-12-20T11:15:03;5.10;99.90
13346;DHT22;6742;48.036;15.780;2023-12-20T11:17:31;5.10;99.90
13346;DHT22;6742;48.036;15.780;2023-12-20T11:20:07;5.20;99.90
13346;DHT22;6742;48.036;15.780;2023-12-20T11:22:36;5.20;99.90
13346;DHT22;6742;48.036;15.780;2023-12-20T11:25:05;5.20;99.90
13346;DHT22;6742;48.036;15.780;2023-12-20T11:27:33;5.20;99.90
13346;DHT22;6742;48.036;15.780;2023-12-20T11:30:03;5.20;99.90
13346;DHT22;6742;48.036;15.780;2023-12-20T11:32:34;5.20;99.90
13346;DHT22;6742;48.036;15.780;2023-12-20T11:35:17;5.20;99.90
13346;DHT22;6742;48.036;15.780;2023-12-20T11:37:45;5.20;99.90
13346;DHT22;6742;48.036;15.780;2023-12-20T11:40:15;5.20;99.90
13346;DHT22;6742;48.036;15.780;2023-12-20T11:42:43;5.30;99.90
13346;DHT22;6742;48.036;15.780;2023-12-20T11:45:14;5.30;99.90
13346;DHT22;6742;48.036;15.780;2023-12-20T11:47:43;5.30;99.90
13346;DHT22;6742;48.036;15.780;2023-12-20T11:50:12;5.30;99.90
13346;DHT22;6742;48.036;15.780;2023-12-20T11:52:39;5.20;99.90
13346;DHT22;6742;48.036;15.780;2023-12-20T11:55:06;5.30;99.90
13346;DHT22;6742;48.036;15.780;2023-12-20T11:57:33;5.20;99.90
13346;DHT22;6742;48.036;15.780;2023-12-20T12:00:00;5.20;99.90
13346;DHT22;6742;48.036;15.780;2023-12-20T12:02:30;5.20;99.90
13346;DHT22;6742;48.036;15.780;2023-12-20T12:04:57;5.30;99.90
13346;DHT22;6742;48.036;15.780;2023-12-20T12:07:25;5.30;99.90
13346;DHT22;6742;48.036;15.780;2023-12-20T12:09:52;5.30;99.90
13346;DHT22;6742;48.036;15.780;2023-12-20T12:12:19;5.30;99.90
13346;DHT22;6742;48.036;15.780;2023-12-20T12:14:48;5.20;99.90
13346;DHT22;6742;48.036;15.780;2023-12-20T12:17:15;5.20;99.90
13346;DHT22;6742;48.036;15.780;2023-12-20T12:19:44;5.20;99.90
13346;DHT22;6742;48.036;15.780;2023-12-20T12:22:12;5.20;99.90
13346;DHT22;6742;48.036;15.780;2023-12-20T12:24:40;5.30;99.90
13346;DHT22;6742;48.036;15.780;2023-12-20T12:27:09;5.30;99.90
13346;DHT22;6742;48.036;15.780;2023-12-20T12:29:37;5.30;99.90
13346;DHT22;6742;48.036;15.780;2023-12-20T12:32:05;5.30;99.90
13346;DHT22;6742;48.036;15.780;2023-12-20T12:34:32;5.30;99.90
13346;DHT22;6742;48.036;15.780;2023-12-20T12:37:02;5.40;99.90
13346;DHT22;6742;48.036;15.780;2023-12-20T12:39:30;5.40;99.90
13346;DHT22;6742;48.036;15.780;2023-12-20T12:41:57;5.40;99.90
13346;DHT22;6742;48.036;15.780;2023-12-20T12:44:24;5.30;99.90
13346;DHT22;6742;48.036;15.780;2023-12-20T12:46:53;5.30;99.90
13346;DHT22;6742;48.036;15.780;2023-12-20T12:49:20;5.30;99.90
13346;DHT22;6742;48.036;15.780;2023-12-20T12:51:47;5.30;99.90
13346;DHT22;6742;48.036;15.780;2023-12-20T12:54:15;5.30;99.90
13346;DHT22;6742;48.036;15.780;2023-12-20T12:56:44;5.20;99.90
13346;DHT22;6742;48.036;15.780;2023-12-20T12:59:12;5.30;99.90
13346;DHT22;6742;48.036;15.780;2023-12-20T13:01:39;5.30;99.90
13346;DHT22;6742;48.036;15.780;2023-12-20T13:04:06;5.30;99.90
13346;DHT22;6742;48.036;15.780;2023-12-20T13:06:36;5.30;99.90
13346;DHT22;6742;48.036;15.780;2023-12-20T13:09:03;5.30;99.90
13346;DHT22;6742;48.036;15.780;2023-12-20T13:11:33;5.20;99.90
13346;DHT22;6742;48.036;15.780;2023-12-20T13:14:00;5.20;99.90
13346;DHT22;6742;48.036;15.780;2023-12-20T13:16:29;5.20;99.90
13346;DHT22;6742;48.036;15.780;2023-12-20T13:18:56;5.20;99.90
13346;DHT22;6742;48.036;15.780;2023-12-20T13:21:24;5.20;99.90
13346;DHT22;6742;48.036;15.780;2023-12-20T13:23:51;5.20;99.90
13346;DHT22;6742;48.036;15.780;2023-12-20T13:26:19;5.10;99.90
13346;DHT22;6742;48.036;15.780;2023-12-20T13:28:47;5.20;99.90
13346;DHT22;6742;48.036;15.780;2023-12-20T13:31:14;5.20;99.90
13346;DHT22;6742;48.036;15.780;2023-12-20T13:33:41;5.10;99.90
13346;DHT22;6742;48.036;15.780;2023-12-20T13:36:08;5.10;99.90
13346;DHT22;6742;48.036;15.780;2023-12-20T13:38:35;5.10;99.90
13346;DHT22;6742;48.036;15.780;2023-12-20T13:41:03;5.10;99.90
13346;DHT22;6742;48.036;15.780;2023-12-20T13:43:30;5.20;99.90
13346;DHT22;6742;48.036;15.780;2023-12-20T13:45:59;5.10;99.90
13346;DHT22;6742;48.036;15.780;2023-12-20T13:48:26;5.10;99.90
13346;DHT22;6742;48.036;15.780;2023-12-20T13:50:53;5.10;99.90
13346;DHT22;6742;48.036;15.780;2023-12-20T13:53:21;5.20;99.90
13346;DHT22;6742;48.036;15.780;2023-12-20T13:55:48;5.20;99.90
13346;DHT22;6742;48.036;15.780;2023-12-20T13:58:15;5.20;99.90
13346;DHT22;6742;48.036;15.780;2023-12-20T14:00:42;5.30;99.90
13346;DHT22;6742;48.036;15.780;2023-12-20T14:03:10;5.30;99.90
13346;DHT22;6742;48.036;15.780;2023-12-20T14:05:37;5.20;99.90
13346;DHT22;6742;48.036;15.780;2023-12-20T14:08:05;5.20;99.90
13346;DHT22;6742;48.036;15.780;2023-12-20T14:10:32;5.20;99.90
13346;DHT22;6742;48.036;15.780;2023-12-20T14:12:59;5.20;99.90
13346;DHT22;6742;48.036;15.780;2023-12-20T14:15:26;5.30;99.90
13346;DHT22;6742;48.036;15.780;2023-12-20T14:17:52;5.20;99.90
13346;DHT22;6742;48.036;15.780;2023-12-20T14:20:21;5.30;99.90
13346;DHT22;6742;48.036;15.780;2023-12-20T14:22:48;5.30;99.90
13346;DHT22;6742;48.036;15.780;2023-12-20T14:25:15;5.30;99.90
13346;DHT22;6742;48.036;15.780;2023-12-20T14:27:42;5.30;99.90
13346;DHT22;6742;48.036;15.780;2023-12-20T14:30:10;5.30;99.90
13346;DHT22;6742;48.036;15.780;2023-12-20T14:32:39;5.30;99.90
13346;DHT22;6742;48.036;15.780;2023-12-20T14:35:06;5.30;99.90
13346;DHT22;6742;48.036;15.780;2023-12-20T14:37:36;5.30;99.90
13346;DHT22;6742;48.036;15.780;2023-12-20T14:40:05;5.30;99.90
13346;DHT22;6742;48.036;15.780;2023-12-20T14:42:36;5.30;99.90
13346;DHT22;6742;48.036;15.780;2023-12-20T14:45:03;5.30;99.90
13346;DHT22;6742;48.036;15.780;2023-12-20T14:47:30;5.30;99.90
13346;DHT22;6742;48.036;15.780;2023-12-20T14:49:57;5.30;99.90
13346;DHT22;6742;48.036;15.780;2023-12-20T14:52:24;5.30;99.90
13346;DHT22;6742;48.036;15.780;2023-12-20T14:54:53;5.30;99.90
13346;DHT22;6742;48.036;15.780;2023-12-20T14:57:20;5.30;99.90
13346;DHT22;6742;48.036;15.780;2023-12-20T14:59:46;5.30;99.90
13346;DHT22;6742;48.036;15.780;2023-12-20T15:02:13;5.30;99.90
13346;DHT22;6742;48.036;15.780;2023-12-20T15:04:41;5.30;99.90
13346;DHT22;6742;48.036;15.780;2023-12-20T15:07:08;5.30;99.90
13346;DHT22;6742;48.036;15.780;2023-12-20T15:09:34;5.40;99.90
13346;DHT22;6742;48.036;15.780;2023-12-20T15:12:03;5.40;99.90
13346;DHT22;6742;48.036;15.780;2023-12-20T15:14:30;5.40;99.90
13346;DHT22;6742;48.036;15.780;2023-12-20T15:16:57;5.40;99.90
13346;DHT22;6742;48.036;15.780;2023-12-20T15:19:24;5.40;99.90
13346;DHT22;6742;48.036;15.780;2023-12-20T15:21:51;5.40;99.90
13346;DHT22;6742;48.036;15.780;2023-12-20T15:24:18;5.40;99.90
13346;DHT22;6742;48.036;15.780;2023-12-20T15:26:52;5.40;99.90
13346;DHT22;6742;48.036;15.780;2023-12-20T15:29:21;5.40;99.90
13346;DHT22;6742;48.036;15.780;2023-12-20T15:31:48;5.40;99.90
13346;DHT22;6742;48.036;15.780;2023-12-20T15:34:15;5.50;99.90
13346;DHT22;6742;48.036;15.780;2023-12-20T15:36:42;5.50;99.90
13346;DHT22;6742;48.036;15.780;2023-12-20T15:39:10;5.50;99.90
13346;DHT22;6742;48.036;15.780;2023-12-20T15:41:40;5.50;99.90
13346;DHT22;6742;48.036;15.780;2023-12-20T15:44:07;5.50;99.90
13346;DHT22;6742;48.036;15.780;2023-12-20T15:46:35;5.50;99.90